createdAt,value
2022-10-02T00:02:29.839Z,98638.28
2022-10-02T00:05:24.711Z,98642.94
2022-10-02T00:07:57.759Z,98644.41
2022-10-02T00:10:45.645Z,98626.72
2022-10-02T00:13:15.543Z,98646.03
2022-10-02T00:15:42.501Z,98661.59
2022-10-02T00:18:14.700Z,98634.72
2022-10-02T00:20:57.954Z,98646.34
2022-10-02T00:23:35.037Z,98666.22
2022-10-02T00:26:22.228Z,98664.63
2022-10-02T00:28:58.196Z,98665.78
2022-10-02T00:31:30.848Z,98668.50
2022-10-02T00:34:30.831Z,98663.06
2022-10-02T00:37:04.089Z,98668.81
2022-10-02T00:40:00.162Z,98675.66
2022-10-02T00:42:45.812Z,98668.69
2022-10-02T00:45:24.836Z,98682.03
2022-10-02T00:48:12.693Z,98677.59
2022-10-02T00:50:57.672Z,98686.38
2022-10-02T00:53:36.649Z,98692.31
2022-10-02T00:56:28.108Z,98690.88
2022-10-02T00:59:04.635Z,98693.63
2022-10-02T01:01:37.160Z,98691.72
2022-10-02T01:04:06.861Z,98666.63
2022-10-02T01:06:33.934Z,98690.88
2022-10-02T01:09:01.447Z,98703.41
2022-10-02T01:11:30.683Z,98701.00
2022-10-02T01:13:57.573Z,98703.84
2022-10-02T01:16:24.484Z,98707.41
2022-10-02T01:18:51.569Z,98710.91
2022-10-02T01:21:21.179Z,98712.50
2022-10-02T01:24:11.522Z,98712.50
2022-10-02T01:26:38.645Z,98717.47
2022-10-02T01:29:05.590Z,98727.28
2022-10-02T01:31:32.697Z,98707.16
2022-10-02T01:33:59.956Z,98732.25
2022-10-02T01:36:26.807Z,98736.56
2022-10-02T01:38:53.687Z,98737.88
2022-10-02T01:41:20.676Z,98741.75
2022-10-02T01:43:58.656Z,98736.03
2022-10-02T01:46:25.409Z,98744.81
2022-10-02T01:49:43.364Z,98749.75
2022-10-02T01:52:13.472Z,98753.31
2022-10-02T01:55:06.738Z,98768.22
2022-10-02T01:57:42.611Z,98773.31
2022-10-02T02:00:17.129Z,98773.19
2022-10-02T02:03:14.370Z,98780.25
2022-10-02T02:05:55.205Z,98779.78
2022-10-02T02:08:39.185Z,98782.19
2022-10-02T02:11:18.608Z,98792.66
2022-10-02T02:14:20.758Z,98795.69
2022-10-02T02:16:54.868Z,98791.06
2022-10-02T02:19:26.491Z,98793.00
2022-10-02T02:21:56.481Z,98791.41
2022-10-02T02:24:29.092Z,98798.31
2022-10-02T02:26:57.742Z,98798.66
2022-10-02T02:29:24.807Z,98810.66
2022-10-02T02:31:52.870Z,98812.59
2022-10-02T02:34:22.393Z,98799.75
2022-10-02T02:36:51.576Z,98812.09
2022-10-02T02:39:22.154Z,98818.16
2022-10-02T02:41:54.265Z,98816.09
2022-10-02T02:45:04.381Z,98817.72
2022-10-02T02:47:56.329Z,98824.63
2022-10-02T02:50:39.040Z,98826.84
2022-10-02T02:53:12.632Z,98836.00
2022-10-02T02:55:50.432Z,98833.25
2022-10-02T02:58:19.516Z,98820.59
2022-10-02T03:00:46.514Z,98829.56
2022-10-02T03:03:13.718Z,98839.19
2022-10-02T03:05:44.064Z,98844.19
2022-10-02T03:08:25.938Z,98833.59
2022-10-02T03:11:05.745Z,98841.78
2022-10-02T03:14:02.519Z,98840.66
2022-10-02T03:16:35.566Z,98844.03
2022-10-02T03:19:17.844Z,98847.41
2022-10-02T03:22:01.072Z,98846.59
2022-10-02T03:24:39.474Z,98814.13
2022-10-02T03:27:10.086Z,98850.44
2022-10-02T03:30:04.046Z,98833.34
2022-10-02T03:32:31.043Z,98852.69
2022-10-02T03:34:57.932Z,98853.47
2022-10-02T03:37:25.269Z,98855.75
2022-10-02T03:39:52.562Z,98867.91
2022-10-02T03:42:24.387Z,98871.44
2022-10-02T03:44:51.247Z,98867.09
2022-10-02T03:47:18.085Z,98855.91
2022-10-02T03:49:46.384Z,98874.47
2022-10-02T03:52:17.316Z,98856.06
2022-10-02T03:54:44.480Z,98872.25
2022-10-02T03:57:19.846Z,98876.25
2022-10-02T04:00:08.714Z,98866.00
2022-10-02T04:02:53.225Z,98874.47
2022-10-02T04:05:34.219Z,98876.09
2022-10-02T04:08:04.986Z,98875.59
2022-10-02T04:11:13.645Z,98876.41
2022-10-02T04:13:46.589Z,98883.78
2022-10-02T04:16:14.882Z,98886.81
2022-10-02T04:18:51.345Z,98884.56
2022-10-02T04:21:27.352Z,98893.69
2022-10-02T04:24:02.536Z,98891.31
2022-10-02T04:26:35.295Z,98874.97
2022-10-02T04:29:18.894Z,98894.34
2022-10-02T04:31:48.264Z,98899.78
2022-10-02T04:34:15.109Z,98901.25
2022-10-02T04:37:01.125Z,98906.34
2022-10-02T04:39:40.118Z,98916.75
2022-10-02T04:42:21.239Z,98922.03
2022-10-02T04:44:50.670Z,98923.66
2022-10-02T04:47:43.221Z,98933.41
2022-10-02T04:50:29.580Z,98936.44
2022-10-02T04:53:16.330Z,98928.63
2022-10-02T04:55:53.498Z,98923.81
2022-10-02T04:58:25.812Z,98943.03
2022-10-02T05:01:36.902Z,98944.59
2022-10-02T05:04:22.458Z,98950.06
2022-10-02T05:06:49.207Z,98961.78
2022-10-02T05:09:28.335Z,98955.19
2022-10-02T05:12:10.336Z,98961.44
2022-10-02T05:14:44.306Z,98958.72
2022-10-02T05:17:44.984Z,98962.06
2022-10-02T05:20:36.224Z,98968.31
2022-10-02T05:23:13.638Z,98965.94
2022-10-02T05:26:15.858Z,98963.00
2022-10-02T05:29:04.525Z,98939.63
2022-10-02T05:31:59.571Z,98977.25
2022-10-02T05:35:02.249Z,98983.84
2022-10-02T05:37:56.856Z,98986.41
2022-10-02T05:40:47.345Z,98989.41
2022-10-02T05:43:41.441Z,98988.78
2022-10-02T05:46:26.113Z,98991.84
2022-10-02T05:48:59.300Z,98995.34
2022-10-02T05:51:36.746Z,99001.13
2022-10-02T05:54:06.695Z,98998.72
2022-10-02T05:56:37.856Z,99000.31
2022-10-02T05:59:09.823Z,98975.47
2022-10-02T06:01:41.787Z,98998.22
2022-10-02T06:04:13.660Z,98988.13
2022-10-02T06:06:44.779Z,98990.66
2022-10-02T06:09:19.533Z,99007.66
2022-10-02T06:12:00.002Z,99017.91
2022-10-02T06:14:39.237Z,99009.75
2022-10-02T06:17:27.643Z,99017.91
2022-10-02T06:20:03.631Z,99020.19
2022-10-02T06:22:36.058Z,99007.34
2022-10-02T06:25:21.480Z,99028.50
2022-10-02T06:27:50.431Z,99025.78
2022-10-02T06:30:17.885Z,99025.00
2022-10-02T06:33:38.723Z,99024.34
2022-10-02T06:36:32.431Z,99021.63
2022-10-02T06:39:17.937Z,99023.53
2022-10-02T06:42:06.433Z,99034.13
2022-10-02T06:44:42.377Z,99026.44
2022-10-02T06:47:36.317Z,99036.19
2022-10-02T06:50:30.490Z,99038.25
2022-10-02T06:53:30.344Z,99011.78
2022-10-02T06:56:02.900Z,99048.03
2022-10-02T06:58:47.803Z,99037.97
2022-10-02T07:01:30.020Z,99038.75
2022-10-02T07:04:21.271Z,99041.78
2022-10-02T07:07:09.609Z,99045.31
2022-10-02T07:09:42.303Z,99051.56
2022-10-02T07:12:26.980Z,99056.69
2022-10-02T07:15:12.288Z,99056.06
2022-10-02T07:17:51.176Z,99044.84
2022-10-02T07:20:20.577Z,99060.38
2022-10-02T07:22:55.077Z,99056.22
2022-10-02T07:25:43.151Z,99064.88
2022-10-02T07:28:29.263Z,99064.88
2022-10-02T07:31:18.291Z,99067.28
2022-10-02T07:33:53.387Z,99067.75
2022-10-02T07:36:33.477Z,99059.28
2022-10-02T07:39:33.189Z,99062.66
2022-10-02T07:42:02.990Z,99066.03
2022-10-02T07:44:35.535Z,99066.19
2022-10-02T07:47:44.044Z,99068.78
2022-10-02T07:50:12.433Z,99069.56
2022-10-02T07:52:42.135Z,99069.09
2022-10-02T07:55:26.955Z,99063.00
2022-10-02T07:57:56.657Z,99059.16
2022-10-02T08:00:24.399Z,99038.81
2022-10-02T08:03:16.758Z,99059.19
2022-10-02T08:05:52.403Z,99062.41
2022-10-02T08:08:27.244Z,99057.91
2022-10-02T08:11:13.362Z,99060.19
2022-10-02T08:14:07.484Z,99056.19
2022-10-02T08:16:41.089Z,99049.47
2022-10-02T08:19:13.126Z,99050.09
2022-10-02T08:21:43.173Z,99058.09
2022-10-02T08:24:14.112Z,99053.28
2022-10-02T08:26:52.632Z,99044.81
2022-10-02T08:29:32.785Z,99034.03
2022-10-02T08:31:59.696Z,99031.63
2022-10-02T08:34:27.447Z,99042.84
2022-10-02T08:36:59.484Z,99035.31
2022-10-02T08:39:44.464Z,99016.84
2022-10-02T08:42:49.494Z,99018.28
2022-10-02T08:45:19.291Z,99027.06
2022-10-02T08:48:05.375Z,99023.19
2022-10-02T08:50:53.780Z,99021.53
2022-10-02T08:53:48.326Z,99030.84
2022-10-02T08:56:41.044Z,99028.75
2022-10-02T08:59:29.677Z,99021.31
2022-10-02T09:02:02.472Z,99024.66
2022-10-02T09:04:50.942Z,99024.16
2022-10-02T09:08:03.409Z,99023.78
2022-10-02T09:11:04.317Z,99018.13
2022-10-02T09:13:33.851Z,99011.31
2022-10-02T09:16:30.158Z,99004.41
2022-10-02T09:19:32.259Z,98991.22
2022-10-02T09:21:59.497Z,99012.97
2022-10-02T09:24:38.093Z,99009.88
2022-10-02T09:27:41.712Z,99015.63
2022-10-02T09:30:11.465Z,99018.19
2022-10-02T09:32:44.135Z,99013.63
2022-10-02T09:35:22.125Z,99021.94
2022-10-02T09:38:14.312Z,99008.78
2022-10-02T09:41:05.989Z,99001.19
2022-10-02T09:43:39.037Z,99005.28
2022-10-02T09:46:27.112Z,98991.84
2022-10-02T09:49:26.853Z,98999.38
2022-10-02T09:52:30.112Z,98992.56
2022-10-02T09:55:36.713Z,98996.38
2022-10-02T09:58:28.147Z,98983.84
2022-10-02T10:00:57.615Z,98982.50
2022-10-02T10:03:44.623Z,98966.31
2022-10-02T10:06:56.707Z,98963.59
2022-10-02T10:10:01.198Z,98971.84
2022-10-02T10:12:49.564Z,98974.78
2022-10-02T10:15:41.027Z,98957.91
2022-10-02T10:18:36.457Z,98970.66
2022-10-02T10:21:29.469Z,98974.06
2022-10-02T10:24:30.189Z,98969.97
2022-10-02T10:27:15.188Z,98973.72
2022-10-02T10:30:00.507Z,98970.75
2022-10-02T10:32:57.060Z,98972.56
2022-10-02T10:35:37.011Z,98968.44
2022-10-02T10:38:34.271Z,98974.72
2022-10-02T10:41:42.749Z,98972.84
2022-10-02T10:44:54.969Z,98974.41
2022-10-02T10:47:31.821Z,98970.63
2022-10-02T10:50:24.449Z,98973.22
2022-10-02T10:53:10.398Z,98967.84
2022-10-02T10:55:49.135Z,98960.34
2022-10-02T10:58:21.387Z,98959.28
2022-10-02T11:00:57.170Z,98959.13
2022-10-02T11:03:53.681Z,98951.88
2022-10-02T11:06:32.804Z,98957.56
2022-10-02T11:09:08.426Z,98962.09
2022-10-02T11:11:57.678Z,98946.25
2022-10-02T11:14:43.945Z,98949.97
2022-10-02T11:17:35.319Z,98947.03
2022-10-02T11:20:20.443Z,98944.47
2022-10-02T11:23:19.002Z,98950.94
2022-10-02T11:25:55.822Z,98933.28
2022-10-02T11:28:51.262Z,98954.88
2022-10-02T11:31:42.624Z,98949.47
2022-10-02T11:34:43.842Z,98945.19
2022-10-02T11:37:11.521Z,98961.41
2022-10-02T11:40:12.907Z,98948.75
2022-10-02T11:42:54.969Z,98948.16
2022-10-02T11:45:43.808Z,98946.72
2022-10-02T11:48:39.204Z,98941.75
2022-10-02T11:51:30.472Z,98941.47
2022-10-02T11:54:00.074Z,98937.63
2022-10-02T11:56:56.579Z,98933.84
2022-10-02T11:59:33.683Z,98937.03
2022-10-02T12:02:07.983Z,98932.34
2022-10-02T12:04:52.689Z,98926.47
2022-10-02T12:07:33.509Z,98897.31
2022-10-02T12:10:22.319Z,98937.47
2022-10-02T12:13:01.170Z,98925.03
2022-10-02T12:15:46.794Z,98925.88
2022-10-02T12:18:28.895Z,98922.53
2022-10-02T12:21:35.494Z,98922.97
2022-10-02T12:24:31.019Z,98890.63
2022-10-02T12:27:23.445Z,98899.97
2022-10-02T12:30:04.045Z,98911.88
2022-10-02T12:32:46.186Z,98900.97
2022-10-02T12:35:43.876Z,98896.34
2022-10-02T12:38:42.796Z,98875.31
2022-10-02T12:41:18.844Z,98901.06
2022-10-02T12:44:10.556Z,98885.84
2022-10-02T12:47:19.467Z,98888.28
2022-10-02T12:50:03.741Z,98894.34
2022-10-02T12:52:51.800Z,98886.25
2022-10-02T12:55:36.653Z,98876.88
2022-10-02T12:58:10.226Z,98877.66
2022-10-02T13:00:55.160Z,98873.03
2022-10-02T13:03:39.970Z,98863.28
2022-10-02T13:06:14.758Z,98863.34
2022-10-02T13:09:06.345Z,98859.84
2022-10-02T13:12:04.303Z,98845.97
2022-10-02T13:14:54.185Z,98863.44
2022-10-02T13:17:33.387Z,98863.09
2022-10-02T13:20:21.135Z,98858.41
2022-10-02T13:23:05.921Z,98850.59
2022-10-02T13:25:54.567Z,98859.69
2022-10-02T13:28:50.025Z,98847.81
2022-10-02T13:31:19.920Z,98845.22
2022-10-02T13:34:01.775Z,98850.34
2022-10-02T13:37:01.486Z,98850.03
2022-10-02T13:39:34.536Z,98851.59
2022-10-02T13:42:14.628Z,98848.91
2022-10-02T13:44:55.099Z,98837.50
2022-10-02T13:47:45.393Z,98828.50
2022-10-02T13:50:17.621Z,98835.59
2022-10-02T13:53:06.620Z,98839.94
2022-10-02T13:55:37.746Z,98831.28
2022-10-02T13:58:33.702Z,98827.81
2022-10-02T14:01:04.666Z,98835.38
2022-10-02T14:03:56.012Z,98833.75
2022-10-02T14:06:35.736Z,98826.22
2022-10-02T14:09:40.048Z,98825.44
2022-10-02T14:12:06.999Z,98828.53
2022-10-02T14:14:48.978Z,98824.53
2022-10-02T14:17:25.034Z,98822.66
2022-10-02T14:20:19.057Z,98814.78
2022-10-02T14:23:06.151Z,98818.75
2022-10-02T14:25:39.172Z,98823.88
2022-10-02T14:28:18.165Z,98806.13
2022-10-02T14:30:57.837Z,98799.00
2022-10-02T14:33:48.726Z,98802.47
2022-10-02T14:36:25.270Z,98800.84
2022-10-02T14:39:10.181Z,98797.72
2022-10-02T14:41:43.382Z,98802.41
2022-10-02T14:44:28.565Z,98794.94
2022-10-02T14:47:17.383Z,98800.03
2022-10-02T14:49:49.950Z,98793.69
2022-10-02T14:52:25.477Z,98793.34
2022-10-02T14:55:04.212Z,98782.31
2022-10-02T14:58:09.697Z,98784.25
2022-10-02T15:00:55.408Z,98782.63
2022-10-02T15:03:31.646Z,98777.50
2022-10-02T15:06:16.986Z,98773.94
2022-10-02T15:08:48.028Z,98769.97
2022-10-02T15:11:39.099Z,98776.66
2022-10-02T15:14:17.551Z,98759.16
2022-10-02T15:17:07.161Z,98773.44
2022-10-02T15:20:11.197Z,98782.50
2022-10-02T15:22:46.158Z,98771.41
2022-10-02T15:25:18.286Z,98774.94
2022-10-02T15:28:31.278Z,98772.19
2022-10-02T15:30:57.196Z,98768.59
2022-10-02T15:33:34.335Z,98763.03
2022-10-02T15:36:19.466Z,98769.72
2022-10-02T15:38:56.957Z,98772.78
2022-10-02T15:41:45.854Z,98775.91
2022-10-02T15:44:42.015Z,98771.50
2022-10-02T15:47:12.043Z,98776.94
2022-10-02T15:50:03.365Z,98772.97
2022-10-02T15:52:46.651Z,98774.13
2022-10-02T15:55:43.988Z,98780.41
2022-10-02T15:58:22.191Z,98768.91
2022-10-02T16:01:19.013Z,98774.44
2022-10-02T16:03:54.009Z,98779.81
2022-10-02T16:06:23.872Z,98774.31
2022-10-02T16:09:08.998Z,98768.81
2022-10-02T16:11:56.507Z,98770.72
2022-10-02T16:15:23.648Z,98774.25
2022-10-02T16:18:19.515Z,98767.91
2022-10-02T16:21:01.688Z,98765.47
2022-10-02T16:23:28.581Z,98771.78
2022-10-02T16:26:15.840Z,98779.25
2022-10-02T16:29:05.001Z,98777.53
2022-10-02T16:32:01.349Z,98786.88
2022-10-02T16:34:40.134Z,98784.94
2022-10-02T16:37:24.691Z,98789.47
2022-10-02T16:40:00.955Z,98785.19
2022-10-02T16:42:52.283Z,98784.94
2022-10-02T16:45:21.888Z,98793.66
2022-10-02T16:47:54.266Z,98788.97
2022-10-02T16:50:47.594Z,98792.16
2022-10-02T16:53:27.319Z,98782.31
2022-10-02T16:56:06.110Z,98794.09
2022-10-02T16:58:43.354Z,98758.00
2022-10-02T17:01:34.364Z,98789.78
2022-10-02T17:04:30.560Z,98794.84
2022-10-02T17:07:04.179Z,98800.28
2022-10-02T17:09:44.360Z,98808.03
2022-10-02T17:12:21.337Z,98809.56
2022-10-02T17:15:00.934Z,98807.59
2022-10-02T17:17:30.891Z,98804.78
2022-10-02T17:20:05.337Z,98804.34
2022-10-02T17:22:35.174Z,98806.69
2022-10-02T17:25:32.637Z,98801.91
2022-10-02T17:28:06.999Z,98805.38
2022-10-02T17:30:52.483Z,98811.25
2022-10-02T17:33:27.103Z,98806.81
2022-10-02T17:35:58.372Z,98793.06
2022-10-02T17:38:40.491Z,98791.16
2022-10-02T17:41:16.139Z,98796.88
2022-10-02T17:44:12.379Z,98798.44
2022-10-02T17:46:42.367Z,98796.00
2022-10-02T17:49:32.688Z,98788.13
2022-10-02T17:52:29.965Z,98800.13
2022-10-02T17:55:43.345Z,98812.97
2022-10-02T17:58:16.764Z,98803.28
2022-10-02T18:01:29.081Z,98818.31
2022-10-02T18:03:59.976Z,98823.00
2022-10-02T18:06:38.096Z,98818.16
2022-10-02T18:09:05.008Z,98816.16
2022-10-02T18:11:47.054Z,98814.47
2022-10-02T18:14:36.667Z,98821.84
2022-10-02T18:17:06.700Z,98822.06
2022-10-02T18:19:42.917Z,98822.13
2022-10-02T18:22:19.053Z,98830.72
2022-10-02T18:25:42.401Z,98837.94
2022-10-02T18:28:21.022Z,98834.81
2022-10-02T18:31:28.786Z,98843.34
2022-10-02T18:34:14.353Z,98839.72
2022-10-02T18:37:00.486Z,98834.16
2022-10-02T18:39:36.537Z,98834.84
2022-10-02T18:42:24.816Z,98844.59
2022-10-02T18:45:01.304Z,98844.97
2022-10-02T18:47:51.075Z,98848.06
2022-10-02T18:50:30.038Z,98843.53
2022-10-02T18:53:28.761Z,98839.47
2022-10-02T18:56:08.695Z,98850.69
2022-10-02T18:59:03.268Z,98852.56
2022-10-02T19:02:18.243Z,98873.19
2022-10-02T19:04:51.185Z,98897.00
2022-10-02T19:07:29.841Z,98894.34
2022-10-02T19:10:21.280Z,98905.56
2022-10-02T19:12:48.949Z,98917.94
2022-10-02T19:15:21.108Z,98907.59
2022-10-02T19:18:04.394Z,98905.19
2022-10-02T19:20:41.564Z,98905.47
2022-10-02T19:23:09.306Z,98912.00
2022-10-02T19:25:36.417Z,98912.09
2022-10-02T19:28:03.298Z,98922.25
2022-10-02T19:30:33.194Z,98917.72
2022-10-02T19:33:04.577Z,98913.69
2022-10-02T19:35:33.657Z,98908.78
2022-10-02T19:38:27.398Z,98912.34
2022-10-02T19:40:55.745Z,98907.72
2022-10-02T19:43:25.723Z,98873.78
2022-10-02T19:45:56.640Z,98909.38
2022-10-02T19:48:25.601Z,98907.63
2022-10-02T19:50:58.290Z,98909.09
2022-10-02T19:53:47.322Z,98906.13
2022-10-02T19:56:24.357Z,98906.50
2022-10-02T19:58:53.506Z,98908.38
2022-10-02T20:01:43.749Z,98916.50
2022-10-02T20:04:16.949Z,98923.44
2022-10-02T20:06:53.101Z,98911.13
2022-10-02T20:09:42.076Z,98915.91
2022-10-02T20:12:30.781Z,98924.72
2022-10-02T20:15:05.748Z,98922.22
2022-10-02T20:17:32.603Z,98924.09
2022-10-02T20:20:01.949Z,98926.81
2022-10-02T20:22:45.870Z,98932.63
2022-10-02T20:25:29.743Z,98924.31
2022-10-02T20:28:18.534Z,98917.25
2022-10-02T20:30:50.584Z,98915.16
2022-10-02T20:33:24.502Z,98930.72
2022-10-02T20:36:01.668Z,98924.69
2022-10-02T20:38:45.610Z,98916.13
2022-10-02T20:41:28.297Z,98917.94
2022-10-02T20:44:07.206Z,98910.13
2022-10-02T20:46:35.815Z,98930.53
2022-10-02T20:49:41.363Z,98919.44
2022-10-02T20:52:26.426Z,98926.31
2022-10-02T20:55:05.236Z,98930.09
2022-10-02T20:58:06.254Z,98929.63
2022-10-02T21:01:11.222Z,98935.78
2022-10-02T21:04:05.558Z,98929.75
2022-10-02T21:06:42.189Z,98936.69
2022-10-02T21:09:30.862Z,98942.06
2022-10-02T21:12:18.714Z,98943.53
2022-10-02T21:15:12.990Z,98951.25
2022-10-02T21:17:45.802Z,98947.63
2022-10-02T21:20:49.259Z,98943.16
2022-10-02T21:23:20.812Z,98943.84
2022-10-02T21:26:09.151Z,98946.94
2022-10-02T21:28:57.865Z,98942.81
2022-10-02T21:31:46.707Z,98943.03
2022-10-02T21:34:42.831Z,98942.91
2022-10-02T21:37:37.147Z,98938.44
2022-10-02T21:40:21.978Z,98943.81
2022-10-02T21:42:51.419Z,98944.47
2022-10-02T21:45:42.551Z,98939.47
2022-10-02T21:48:30.555Z,98950.41
2022-10-02T21:51:35.353Z,98952.31
2022-10-02T21:54:37.534Z,98943.88
2022-10-02T21:57:38.525Z,98950.81
2022-10-02T22:00:14.770Z,98950.69
2022-10-02T22:02:53.941Z,98964.38
2022-10-02T22:05:48.328Z,98967.91
2022-10-02T22:08:24.020Z,98972.09
2022-10-02T22:11:01.397Z,98976.44
2022-10-02T22:13:38.017Z,98979.84
2022-10-02T22:16:20.263Z,98982.59
2022-10-02T22:18:49.992Z,98978.22
2022-10-02T22:21:31.780Z,98985.31
2022-10-02T22:24:17.575Z,98987.59
2022-10-02T22:27:22.193Z,98985.84
2022-10-02T22:29:55.171Z,98986.50
2022-10-02T22:32:55.887Z,98989.00
2022-10-02T22:35:29.067Z,98982.75
2022-10-02T22:38:04.346Z,98981.94
2022-10-02T22:40:40.312Z,98979.88
2022-10-02T22:43:07.188Z,98973.94
2022-10-02T22:45:41.637Z,98978.44
2022-10-02T22:48:32.772Z,98978.78
2022-10-02T22:51:06.693Z,98967.25
2022-10-02T22:53:38.776Z,98933.88
2022-10-02T22:56:14.367Z,98967.78
2022-10-02T22:58:53.881Z,98966.19
2022-10-02T23:01:40.196Z,98947.66
2022-10-02T23:04:25.894Z,98973.81
2022-10-02T23:07:31.114Z,98972.84
2022-10-02T23:10:03.603Z,98968.72
2022-10-02T23:12:54.974Z,98970.53
2022-10-02T23:15:41.832Z,98939.88
2022-10-02T23:18:19.298Z,98974.59
2022-10-02T23:21:03.007Z,98983.88
2022-10-02T23:23:33.978Z,98988.91
2022-10-02T23:26:07.207Z,98995.47
2022-10-02T23:28:53.250Z,98991.03
2022-10-02T23:31:31.249Z,99004.69
2022-10-02T23:33:58.071Z,99002.25
2022-10-02T23:36:30.345Z,98977.91
2022-10-02T23:39:03.387Z,99002.91
2022-10-02T23:41:48.214Z,99004.16
2022-10-02T23:44:43.057Z,99004.69
2022-10-02T23:47:48.561Z,99012.91
2022-10-02T23:50:22.733Z,99003.31
2022-10-02T23:52:55.571Z,99003.97
2022-10-02T23:56:14.833Z,99002.34
2022-10-02T23:58:44.826Z,99010.75
